Gardner, MA

8:30 AM EDT on August 27, 2014 (GMT -0400)
Worcester Regional | Change Station
CLOSE
Current Station
Airport
Location: Worcester,
Elevation: 1007 ft
Nearby Weather Stations

Elev 1007 ft 42.27 °N, 71.87 °W | Updated 36 minutes ago

Clear
Clear
68 °F
Feels Like 68 °F
N
10
Wind Variable Wind from WSW

Today
High -- | Low -- °F
--% Chance of Precip.
Yesterday
High -- | Low -- °F
Precip. -- in
6:07 AM 7:30 PM
Waxing Crescent, 3% visible
Pressure 30.02 in
Visibility 10.0 miles
Clouds Clear
Dew Point 61 °F
Humidity 78%
Rainfall 0.00 in
Snow Depth Not available.
UV 1 out of 12
Pollen 9.90 out of 12
PM2.5 Moderate
Flu Activity Not available.
METAR KORH 271154Z 25009KT 10SM CLR 20/16 A3003 RMK AO2 SLP164 T02000161 10200 20178 53002

More Conditions Fewer Conditions

Pressure 30.02 in
Visibility 10.0 miles
Clouds Clear
Dew Point 61 °F
Humidity 78%
Rainfall 0.00 in
Snow Depth Not available.
UV 1 out of 12
Pollen 9.90 out of 12
PM2.5 Moderate
Flu Activity Not available.
METAR KORH 271154Z 25009KT 10SM CLR 20/16 A3003 RMK AO2 SLP164 T02000161 10200 20178 53002

More Conditions Fewer Conditions

10-Day Weather Forecast

Almanac

Astronomy

Aug. 27, 2014 Rise Set
Actual Time 6:07 AM EDT 7:30 PM EDT
Civil Twilight 5:38 AM EDT 7:59 PM EDT
Nautical Twilight 5:02 AM EDT 8:35 PM EDT
Astronomical Twilight 4:25 AM EDT 9:12 PM EDT
Moon 8:04 AM EDT 8:17 PM EDT
Length of Visible Light 14h 21m
Length of Day
13h 23m
Tomorrow will be 2m 44s shorter.
Waxing Crescent, 3% of the Moon is Illuminated
Today
Waxing Crescent
Sep 2
First Quarter
Sep 8
Full
Sep 15
Last Quarter
Sep 24
New

Today's Extremes

State Highs State Lows

Community

WunderPhotos

Upload Photos

1,747,676 photos uploaded!

Nearby

Air Quality

  Air Quality AQ Index Pollutant
Yesterday Moderate
PM2.5
Yesterday Good
OZONE
Current Moderate
PM2.5
Wednesday Moderate
OZONE
Wednesday Moderate
PM2.5

Snow Depth

Station Depth Elevation
No new snow has been reported.

Earthquake Activity

City Distance Mag. Time & Date
No recent earthquake activity has been reported nearby.
Minimum magnitude displayed is 2.5.

Coastal Water Temperatures

Place Temperature
No Stations Reporting

Nearby Weather Stations